Terminal Aerodrome Forecast
Issued by NWS

Home | Current Version | Previous Version | Text Only | Print | Product List | Glossary On
Versions: 1 2 3 4 5 6 7 8 9 10 11 12 13
069
FTUS43 KMPX 022330
TAFRNH
TAF
KRNH 022330Z 0300/0324 VRB03KT P6SM SKC
     FM031200 25007KT P6SM SCT250
     FM031500 26015G23KT P6SM SCT120 BKN250
     FM032100 30017G25KT 6SM -SHRA BR BKN050=

USA.gov is the U.S. government's official web portal to all federal, state and local government web resources and services.